createdAt,value
2017-07-27T00:00:48.550Z,10.60
2017-07-27T00:03:51.892Z,9.60
2017-07-27T00:06:55.216Z,15.53
2017-07-27T00:09:58.539Z,11.40
2017-07-27T00:13:01.878Z,16.73
2017-07-27T00:16:05.204Z,12.70
2017-07-27T00:19:08.518Z,12.60
2017-07-27T00:22:11.866Z,14.47
2017-07-27T00:25:15.171Z,11.47
2017-07-27T00:28:18.544Z,17.93
2017-07-27T00:31:22.630Z,12.97
2017-07-27T00:34:25.987Z,14.00
2017-07-27T00:37:29.361Z,18.57
2017-07-27T00:40:33.424Z,19.60
2017-07-27T00:43:36.778Z,15.53
2017-07-27T00:46:40.860Z,21.27
2017-07-27T00:49:44.197Z,13.00
2017-07-27T00:52:47.531Z,13.73
2017-07-27T00:55:50.861Z,12.43
2017-07-27T00:58:54.161Z,13.73
2017-07-27T01:01:58.252Z,15.40
2017-07-27T01:05:01.725Z,11.90
2017-07-27T01:08:05.020Z,11.77
2017-07-27T01:11:08.347Z,17.40
2017-07-27T01:14:11.644Z,19.83
2017-07-27T01:17:14.971Z,29.50
2017-07-27T01:20:19.055Z,15.97
2017-07-27T01:23:22.404Z,14.90
2017-07-27T01:26:25.953Z,19.20
2017-07-27T01:29:29.286Z,15.37
2017-07-27T01:32:32.663Z,19.87
2017-07-27T01:35:36.729Z,18.23
2017-07-27T01:38:40.083Z,19.00
2017-07-27T01:41:44.204Z,15.17
2017-07-27T01:44:48.290Z,21.47
2017-07-27T01:47:51.573Z,11.70
2017-07-27T01:50:54.909Z,18.63
2017-07-27T01:53:59.274Z,20.30
2017-07-27T01:57:02.580Z,14.00
2017-07-27T02:00:05.914Z,10.60
2017-07-27T02:03:09.189Z,15.03
2017-07-27T02:06:12.527Z,11.10
2017-07-27T02:09:15.810Z,20.53
2017-07-27T02:12:19.909Z,12.93
2017-07-27T02:15:23.210Z,11.27
2017-07-27T02:18:27.298Z,13.17
2017-07-27T02:21:30.650Z,12.03
2017-07-27T02:24:33.941Z,10.53
2017-07-27T02:27:37.279Z,12.30
2017-07-27T02:30:40.558Z,8.67
2017-07-27T02:33:43.865Z,6.57
2017-07-27T02:36:47.145Z,6.07
2017-07-27T02:39:50.474Z,9.63
2017-07-27T02:42:53.753Z,4.70
2017-07-27T02:45:57.063Z,6.77
2017-07-27T02:49:00.661Z,4.60
2017-07-27T02:52:03.950Z,10.93
2017-07-27T02:55:07.260Z,3.27
2017-07-27T02:58:10.542Z,4.50
2017-07-27T03:01:13.849Z,3.77
2017-07-27T03:04:17.129Z,3.07
2017-07-27T03:07:20.434Z,3.33
2017-07-27T03:10:24.035Z,2.90
2017-07-27T03:13:27.336Z,4.20
2017-07-27T03:16:30.641Z,2.50
2017-07-27T03:19:33.943Z,2.97
2017-07-27T03:22:37.253Z,3.33
2017-07-27T03:25:41.318Z,5.60
2017-07-27T03:28:44.628Z,2.73
2017-07-27T03:31:47.942Z,2.60
2017-07-27T03:34:51.278Z,1.77
2017-07-27T03:37:54.585Z,5.23
2017-07-27T03:40:57.889Z,5.13
2017-07-27T03:44:01.222Z,2.43
2017-07-27T03:47:04.518Z,2.80
2017-07-27T03:50:07.868Z,5.70
2017-07-27T03:53:11.181Z,2.13
2017-07-27T03:56:14.517Z,4.70
2017-07-27T03:59:17.832Z,5.23
2017-07-27T04:02:21.110Z,2.07
2017-07-27T04:05:24.416Z,2.50
2017-07-27T04:08:27.705Z,7.87
2017-07-27T04:11:31.794Z,5.57
2017-07-27T04:14:35.074Z,2.53
2017-07-27T04:17:38.404Z,2.57
2017-07-27T04:20:41.845Z,3.97
2017-07-27T04:23:45.145Z,2.40
2017-07-27T04:26:48.463Z,1.90
2017-07-27T04:29:51.761Z,2.63
2017-07-27T04:32:55.092Z,4.80
2017-07-27T04:35:58.366Z,3.70
2017-07-27T04:39:01.697Z,2.50
2017-07-27T04:42:05.741Z,3.53
2017-07-27T04:45:09.049Z,3.23
2017-07-27T04:48:12.480Z,2.07
2017-07-27T04:51:15.776Z,2.20
2017-07-27T04:54:19.113Z,3.43
2017-07-27T04:57:40.224Z,2.30
2017-07-27T05:00:44.316Z,3.40
2017-07-27T05:03:47.593Z,3.07
2017-07-27T05:06:50.903Z,3.10
2017-07-27T05:09:54.210Z,3.87
2017-07-27T05:12:58.309Z,3.63
2017-07-27T05:16:01.623Z,6.57
2017-07-27T05:19:05.685Z,7.10
2017-07-27T05:22:09.009Z,4.57
2017-07-27T05:25:12.675Z,3.60
2017-07-27T05:28:15.953Z,4.00
2017-07-27T05:31:19.393Z,3.80
2017-07-27T05:34:22.696Z,9.80
2017-07-27T05:37:26.007Z,4.93
2017-07-27T05:40:29.287Z,5.23
2017-07-27T05:43:32.599Z,4.70
2017-07-27T05:46:35.909Z,7.43
2017-07-27T05:49:40.006Z,4.60
2017-07-27T05:52:43.341Z,6.30
2017-07-27T05:55:46.642Z,4.50
2017-07-27T05:58:49.953Z,5.40
2017-07-27T06:01:53.239Z,7.73
2017-07-27T06:04:56.586Z,4.37
2017-07-27T06:07:59.869Z,5.83
2017-07-27T06:11:03.190Z,10.30
2017-07-27T06:14:06.466Z,5.57
2017-07-27T06:17:09.782Z,5.47
2017-07-27T06:20:13.063Z,15.57
2017-07-27T06:23:16.393Z,8.33
2017-07-27T06:26:19.902Z,9.87
2017-07-27T06:29:23.202Z,9.73
2017-07-27T06:32:26.523Z,6.03
2017-07-27T06:35:29.826Z,8.17
2017-07-27T06:38:33.928Z,5.70
2017-07-27T06:41:37.258Z,6.43
2017-07-27T06:44:40.598Z,12.50
2017-07-27T06:47:43.885Z,6.63
2017-07-27T06:50:47.217Z,7.50
2017-07-27T06:53:50.521Z,16.63
2017-07-27T06:56:54.622Z,8.70
2017-07-27T06:59:58.887Z,7.73
2017-07-27T07:03:02.337Z,6.87
2017-07-27T07:06:05.821Z,7.17
2017-07-27T07:09:09.146Z,8.23
2017-07-27T07:12:13.227Z,8.13
2017-07-27T07:15:16.543Z,4.80
2017-07-27T07:18:19.859Z,7.33
2017-07-27T07:21:23.934Z,4.10
2017-07-27T07:24:27.208Z,4.90
2017-07-27T07:27:30.938Z,5.57
2017-07-27T07:30:34.246Z,5.37
2017-07-27T07:33:37.590Z,10.30
2017-07-27T07:36:40.892Z,6.83
2017-07-27T07:39:44.206Z,3.17
2017-07-27T07:42:47.482Z,2.97
2017-07-27T07:45:50.814Z,13.27
2017-07-27T07:48:53.856Z,3.80
2017-07-27T07:51:57.131Z,5.20
2017-07-27T07:55:01.249Z,5.80
2017-07-27T07:58:05.318Z,7.10
2017-07-27T08:01:08.626Z,3.60
2017-07-27T08:04:11.915Z,5.30
2017-07-27T08:07:15.249Z,4.60
2017-07-27T08:10:24.537Z,7.40
2017-07-27T08:13:27.842Z,4.37
2017-07-27T08:16:31.140Z,6.20
2017-07-27T08:19:34.458Z,2.70
2017-07-27T08:22:37.734Z,3.00
2017-07-27T08:25:41.046Z,3.17
2017-07-27T08:28:44.777Z,9.13
2017-07-27T08:31:48.062Z,3.57
2017-07-27T08:34:51.393Z,7.37
2017-07-27T08:37:54.693Z,12.30
2017-07-27T08:40:58.001Z,2.73
2017-07-27T08:44:02.073Z,5.47
2017-07-27T08:47:05.382Z,7.20
2017-07-27T08:50:08.658Z,6.00
2017-07-27T08:53:11.966Z,3.67
2017-07-27T08:56:15.269Z,3.63
2017-07-27T08:59:18.579Z,3.33
2017-07-27T09:02:21.857Z,2.20
2017-07-27T09:05:25.192Z,12.20
2017-07-27T09:08:29.270Z,2.20
2017-07-27T09:11:32.581Z,5.03
2017-07-27T09:14:35.889Z,4.00
2017-07-27T09:17:39.952Z,4.77
2017-07-27T09:20:43.284Z,2.27
2017-07-27T09:23:46.721Z,3.50
2017-07-27T09:26:50.027Z,5.50
2017-07-27T09:29:53.331Z,2.17
2017-07-27T09:32:56.634Z,11.93
2017-07-27T09:35:59.941Z,7.13
2017-07-27T09:39:03.241Z,3.90
2017-07-27T09:42:06.572Z,2.13
2017-07-27T09:45:10.621Z,10.87
2017-07-27T09:48:13.933Z,3.83
2017-07-27T09:51:17.215Z,2.70
2017-07-27T09:54:20.549Z,3.33
2017-07-27T09:57:29.409Z,8.47
2017-07-27T10:00:32.698Z,10.23
2017-07-27T10:03:36.014Z,5.57
2017-07-27T10:06:39.314Z,3.23
2017-07-27T10:09:42.644Z,4.30
2017-07-27T10:12:45.948Z,3.73
2017-07-27T10:15:49.288Z,11.40
2017-07-27T10:18:52.574Z,7.80
2017-07-27T10:21:56.670Z,4.63
2017-07-27T10:24:59.947Z,4.20
2017-07-27T10:28:03.292Z,6.90
2017-07-27T10:31:06.706Z,6.00
2017-07-27T10:34:10.004Z,9.37
2017-07-27T10:37:13.332Z,9.57
2017-07-27T10:40:16.613Z,6.37
2017-07-27T10:43:19.941Z,9.23
2017-07-27T10:46:23.222Z,5.77
2017-07-27T10:49:26.533Z,8.43
2017-07-27T10:52:30.114Z,5.03
2017-07-27T10:55:33.389Z,8.57
2017-07-27T10:58:36.989Z,4.83
2017-07-27T11:01:40.290Z,6.23
2017-07-27T11:04:43.620Z,11.90
2017-07-27T11:07:46.917Z,8.03
2017-07-27T11:10:50.229Z,6.77
2017-07-27T11:13:53.535Z,9.03
2017-07-27T11:16:57.616Z,7.40
2017-07-27T11:20:00.909Z,8.67
2017-07-27T11:23:04.260Z,17.20
2017-07-27T11:26:07.561Z,6.30
2017-07-27T11:29:10.877Z,8.93
2017-07-27T11:32:14.216Z,12.63
2017-07-27T11:35:17.517Z,8.17
2017-07-27T11:38:20.952Z,12.73
2017-07-27T11:41:24.259Z,8.70
2017-07-27T11:44:27.565Z,3.93
2017-07-27T11:47:30.860Z,8.90
2017-07-27T11:50:34.195Z,19.53
2017-07-27T11:53:37.477Z,7.70
2017-07-27T11:56:40.785Z,9.80
2017-07-27T11:59:44.081Z,9.83
2017-07-27T12:02:47.413Z,11.00
2017-07-27T12:05:50.716Z,6.00
2017-07-27T12:08:53.996Z,15.63
2017-07-27T12:11:57.329Z,7.83
2017-07-27T12:15:00.636Z,15.93
2017-07-27T12:18:05.237Z,20.40
2017-07-27T12:21:08.515Z,12.53
2017-07-27T12:24:11.830Z,9.87
2017-07-27T12:27:15.133Z,9.90
2017-07-27T12:30:18.463Z,8.93
2017-07-27T12:33:21.881Z,11.13
2017-07-27T12:36:25.934Z,6.97
2017-07-27T12:39:29.269Z,11.40
2017-07-27T12:42:32.574Z,11.43
2017-07-27T12:45:35.912Z,6.47
2017-07-27T12:48:39.196Z,5.43
2017-07-27T12:51:43.304Z,11.93
2017-07-27T12:54:47.372Z,12.30
2017-07-27T12:57:50.707Z,9.00
2017-07-27T13:00:54.897Z,8.83
2017-07-27T13:03:58.181Z,8.17
2017-07-27T13:07:01.886Z,12.90
2017-07-27T13:10:05.184Z,9.50
2017-07-27T13:13:08.497Z,12.30
2017-07-27T13:16:11.785Z,10.27
2017-07-27T13:19:15.102Z,16.87
2017-07-27T13:22:18.385Z,16.67
2017-07-27T13:25:21.703Z,15.53
2017-07-27T13:28:25.036Z,15.20
2017-07-27T13:31:28.341Z,11.80
2017-07-27T13:34:31.677Z,11.37
2017-07-27T13:37:34.954Z,13.97
2017-07-27T13:40:38.267Z,8.53
2017-07-27T13:43:41.543Z,7.30
2017-07-27T13:46:44.855Z,10.43
2017-07-27T13:49:48.136Z,15.03
2017-07-27T13:52:51.449Z,11.63
2017-07-27T13:55:54.894Z,10.10
2017-07-27T13:58:58.175Z,12.10
2017-07-27T14:02:01.517Z,11.63
2017-07-27T14:05:04.815Z,13.43
2017-07-27T14:08:08.167Z,10.27
2017-07-27T14:11:11.469Z,14.03
2017-07-27T14:14:14.804Z,9.50
2017-07-27T14:17:18.136Z,8.00
2017-07-27T14:20:21.443Z,14.10
2017-07-27T14:23:25.521Z,10.27
2017-07-27T14:26:28.832Z,11.93
2017-07-27T14:29:32.168Z,22.07
2017-07-27T14:32:35.472Z,11.33
2017-07-27T14:35:38.810Z,11.80
2017-07-27T14:38:42.094Z,23.53
2017-07-27T14:41:45.411Z,10.93
2017-07-27T14:44:48.745Z,7.63
2017-07-27T14:47:52.025Z,22.10
2017-07-27T14:50:55.333Z,6.27
2017-07-27T14:53:58.613Z,8.77
2017-07-27T14:57:02.695Z,7.70
2017-07-27T15:00:05.994Z,8.83
2017-07-27T15:03:09.317Z,4.80
2017-07-27T15:06:13.392Z,7.50
2017-07-27T15:09:16.732Z,12.57
2017-07-27T15:12:21.182Z,24.10
2017-07-27T15:15:24.462Z,7.07
2017-07-27T15:18:27.782Z,14.97
2017-07-27T15:21:31.080Z,7.90
2017-07-27T15:24:34.590Z,9.63
2017-07-27T15:27:37.935Z,12.33
2017-07-27T15:30:41.297Z,11.43
2017-07-27T15:33:44.611Z,15.67
2017-07-27T15:36:47.957Z,13.07
2017-07-27T15:39:51.344Z,14.80
2017-07-27T15:42:54.661Z,17.17
2017-07-27T15:45:58.161Z,17.10
2017-07-27T15:49:01.466Z,11.83
2017-07-27T15:52:04.961Z,10.80
2017-07-27T15:55:08.238Z,15.87
2017-07-27T15:58:11.554Z,13.03
2017-07-27T16:01:15.069Z,21.57
2017-07-27T16:04:18.365Z,17.17
2017-07-27T16:07:21.805Z,22.97
2017-07-27T16:10:25.877Z,25.03
2017-07-27T16:13:29.201Z,15.10
2017-07-27T16:16:33.251Z,22.57
2017-07-27T16:19:36.565Z,8.50
2017-07-27T16:22:39.850Z,6.83
2017-07-27T16:25:43.168Z,19.40
2017-07-27T16:28:46.672Z,16.60
2017-07-27T16:31:49.978Z,24.87
2017-07-27T16:34:53.294Z,24.17
2017-07-27T16:37:56.575Z,18.23
2017-07-27T16:40:59.893Z,21.80
2017-07-27T16:44:03.965Z,18.70
2017-07-27T16:47:07.275Z,16.23
2017-07-27T16:50:10.556Z,17.17
2017-07-27T16:53:13.891Z,6.33
2017-07-27T16:56:18.400Z,23.33
2017-07-27T16:59:21.709Z,15.77
2017-07-27T17:02:25.023Z,17.77
2017-07-27T17:05:28.304Z,11.43
2017-07-27T17:08:32.383Z,17.90
2017-07-27T17:11:35.725Z,11.30
2017-07-27T17:14:39.794Z,12.40
2017-07-27T17:17:43.098Z,9.27
2017-07-27T17:20:46.378Z,12.93
2017-07-27T17:23:49.717Z,7.00
2017-07-27T17:26:53.816Z,21.00
2017-07-27T17:29:57.120Z,19.90
2017-07-27T17:33:01.222Z,21.33
2017-07-27T17:36:04.556Z,12.30
2017-07-27T17:39:07.844Z,13.37
2017-07-27T17:42:11.197Z,17.50
2017-07-27T17:45:14.479Z,12.33
2017-07-27T17:48:17.798Z,19.10
2017-07-27T17:51:21.107Z,29.00
2017-07-27T17:54:24.438Z,15.77
2017-07-27T17:57:27.798Z,18.67
2017-07-27T18:00:31.100Z,15.33
2017-07-27T18:03:34.442Z,15.30
2017-07-27T18:06:37.723Z,15.90
2017-07-27T18:09:41.053Z,16.90
2017-07-27T18:12:44.388Z,19.00
2017-07-27T18:15:47.672Z,19.63
2017-07-27T18:18:51.010Z,17.00
2017-07-27T18:21:54.346Z,17.53
2017-07-27T18:24:58.429Z,15.90
2017-07-27T18:28:01.765Z,10.93
2017-07-27T18:31:05.072Z,12.23
2017-07-27T18:34:08.408Z,17.07
2017-07-27T18:37:11.860Z,20.60
2017-07-27T18:40:15.357Z,14.90
2017-07-27T18:43:18.690Z,19.17
2017-07-27T18:46:21.999Z,18.97
2017-07-27T18:49:25.274Z,13.53
2017-07-27T18:52:28.595Z,22.67
2017-07-27T18:55:31.967Z,20.63
2017-07-27T18:58:35.317Z,8.10
2017-07-27T19:01:39.385Z,18.00
2017-07-27T19:04:42.725Z,15.67
2017-07-27T19:07:46.889Z,21.63
2017-07-27T19:10:50.870Z,16.23
2017-07-27T19:13:54.747Z,11.67
2017-07-27T19:16:58.120Z,14.27
2017-07-27T19:20:01.565Z,8.63
2017-07-27T19:23:05.614Z,35.03
2017-07-27T19:26:09.035Z,9.07
2017-07-27T19:29:12.319Z,15.37
2017-07-27T19:32:15.640Z,11.90
2017-07-27T19:35:18.927Z,20.47
2017-07-27T19:38:22.281Z,17.67
2017-07-27T19:41:27.460Z,16.43
2017-07-27T19:44:30.843Z,12.10
2017-07-27T19:47:35.155Z,13.50
2017-07-27T19:50:38.493Z,12.67
2017-07-27T19:53:41.790Z,9.10
2017-07-27T19:56:45.129Z,13.20
2017-07-27T19:59:48.496Z,14.80
2017-07-27T20:02:51.820Z,15.80
2017-07-27T20:05:55.191Z,17.60
2017-07-27T20:08:58.490Z,22.53
2017-07-27T20:12:01.833Z,21.07
2017-07-27T20:15:07.215Z,14.03
2017-07-27T20:18:10.546Z,14.23
2017-07-27T20:21:13.999Z,25.50
2017-07-27T20:24:17.298Z,13.20
2017-07-27T20:27:21.580Z,14.70
2017-07-27T20:30:24.936Z,15.60
2017-07-27T20:33:29.068Z,21.33
2017-07-27T20:36:32.400Z,21.53
2017-07-27T20:39:35.765Z,14.27
2017-07-27T20:42:39.061Z,25.33
2017-07-27T20:45:42.412Z,14.30
2017-07-27T20:48:45.857Z,16.43
2017-07-27T20:51:49.174Z,17.87
2017-07-27T20:54:52.521Z,16.80
2017-07-27T20:57:55.841Z,19.20
2017-07-27T21:00:59.167Z,14.07
2017-07-27T21:04:02.459Z,21.57
2017-07-27T21:07:05.804Z,22.00
2017-07-27T21:10:09.094Z,23.57
2017-07-27T21:13:12.424Z,11.80
2017-07-27T21:16:15.865Z,13.77
2017-07-27T21:19:19.940Z,21.67
2017-07-27T21:22:23.276Z,18.90
2017-07-27T21:25:27.325Z,14.73
2017-07-27T21:28:30.643Z,15.57
2017-07-27T21:31:33.953Z,12.73
2017-07-27T21:34:37.265Z,14.40
2017-07-27T21:37:40.606Z,15.40
2017-07-27T21:40:43.914Z,11.50
2017-07-27T21:43:47.190Z,15.40
2017-07-27T21:46:50.497Z,7.23
2017-07-27T21:49:54.024Z,22.43
2017-07-27T21:52:57.329Z,19.07
2017-07-27T21:56:00.643Z,13.23
2017-07-27T21:59:03.922Z,17.07
2017-07-27T22:02:07.233Z,9.53
2017-07-27T22:05:10.538Z,9.20
2017-07-27T22:08:13.870Z,12.93
2017-07-27T22:11:17.314Z,14.70
2017-07-27T22:14:20.623Z,18.40
2017-07-27T22:17:23.940Z,15.10
2017-07-27T22:20:29.712Z,13.77
2017-07-27T22:23:33.535Z,18.57
2017-07-27T22:26:36.894Z,25.23
2017-07-27T22:29:40.246Z,12.77
2017-07-27T22:32:43.586Z,20.53
2017-07-27T22:35:47.666Z,8.90
2017-07-27T22:38:51.245Z,11.67
2017-07-27T22:41:54.546Z,13.83
2017-07-27T22:44:58.169Z,15.03
2017-07-27T22:48:02.590Z,15.90
2017-07-27T22:51:05.922Z,16.20
2017-07-27T22:54:10.014Z,12.40
2017-07-27T22:57:13.329Z,20.30
2017-07-27T23:00:16.897Z,31.77
2017-07-27T23:03:20.216Z,11.10
2017-07-27T23:06:24.694Z,14.00
2017-07-27T23:09:28.026Z,16.97
2017-07-27T23:12:31.718Z,19.67
2017-07-27T23:15:35.864Z,21.87
2017-07-27T23:18:40.198Z,13.63
2017-07-27T23:21:45.871Z,15.20
2017-07-27T23:24:49.245Z,11.43
2017-07-27T23:27:52.685Z,13.83
2017-07-27T23:30:55.988Z,13.60
2017-07-27T23:33:59.352Z,14.50
2017-07-27T23:37:03.402Z,14.43
2017-07-27T23:40:06.716Z,20.23
2017-07-27T23:43:09.991Z,9.73
2017-07-27T23:46:13.304Z,14.40
2017-07-27T23:49:16.581Z,8.43
2017-07-27T23:52:19.913Z,20.73
2017-07-27T23:55:23.345Z,13.60
2017-07-27T23:58:27.419Z,16.87
